createdAt,value
2023-03-08T00:01:03.217Z,99604.88
2023-03-08T00:03:29.601Z,99604.06
2023-03-08T00:05:55.975Z,99608.34
2023-03-08T00:08:22.334Z,99616.91
2023-03-08T00:10:48.746Z,99615.22
2023-03-08T00:13:15.085Z,99616.78
2023-03-08T00:15:41.519Z,99615.16
2023-03-08T00:18:07.892Z,99615.34
2023-03-08T00:20:34.338Z,99628.28
2023-03-08T00:23:00.676Z,99616.16
2023-03-08T00:25:27.057Z,99613.44
2023-03-08T00:27:53.470Z,99610.78
2023-03-08T00:30:19.967Z,99616.91
2023-03-08T00:32:46.907Z,99626.38
2023-03-08T00:35:13.288Z,99621.34
2023-03-08T00:37:39.676Z,99629.03
2023-03-08T00:40:07.216Z,99634.28
2023-03-08T00:42:34.828Z,99644.63
2023-03-08T00:45:01.448Z,99635.22
2023-03-08T00:47:27.946Z,99636.88
2023-03-08T00:49:54.305Z,99641.88
2023-03-08T00:52:20.827Z,99637.47
2023-03-08T00:54:47.187Z,99635.59
2023-03-08T00:57:13.544Z,99635.56
2023-03-08T00:59:39.917Z,99632.81
2023-03-08T01:02:06.328Z,99649.03
2023-03-08T01:04:33.633Z,99657.41
2023-03-08T01:07:00.923Z,99653.81
2023-03-08T01:09:27.280Z,99656.19
2023-03-08T01:11:53.676Z,99652.63
2023-03-08T01:14:20.100Z,99655.16
2023-03-08T01:16:46.534Z,99656.84
2023-03-08T01:19:13.012Z,99651.69
2023-03-08T01:21:41.496Z,99645.72
2023-03-08T01:24:07.933Z,99645.72
2023-03-08T01:26:34.340Z,99637.91
2023-03-08T01:29:01.029Z,99632.81
2023-03-08T01:31:31.197Z,99630.22
2023-03-08T01:33:59.208Z,99631.09
2023-03-08T01:36:27.211Z,99628.66
2023-03-08T01:38:53.643Z,99626.91
2023-03-08T01:41:23.965Z,99625.13
2023-03-08T01:43:51.659Z,99619.13
2023-03-08T01:46:31.132Z,99632.16
2023-03-08T01:49:25.857Z,99630.63
2023-03-08T01:52:10.800Z,99620.47
2023-03-08T01:54:42.056Z,99616.13
2023-03-08T01:57:17.584Z,99614.38
2023-03-08T01:59:46.378Z,99615.16
2023-03-08T02:02:12.790Z,99614.41
2023-03-08T02:04:40.674Z,99605.75
2023-03-08T02:07:10.192Z,99608.31
2023-03-08T02:09:36.771Z,99605.00
2023-03-08T02:12:10.956Z,99607.56
2023-03-08T02:14:37.356Z,99605.75
2023-03-08T02:17:03.768Z,99602.28
2023-03-08T02:19:45.211Z,99601.53
2023-03-08T02:22:14.095Z,99606.94
2023-03-08T02:24:40.485Z,99604.59
2023-03-08T02:27:12.872Z,99607.22
2023-03-08T02:29:39.349Z,99613.34
2023-03-08T02:32:06.302Z,99616.81
2023-03-08T02:34:32.681Z,99609.22
2023-03-08T02:36:59.052Z,99611.00
2023-03-08T02:39:25.461Z,99618.75
2023-03-08T02:41:54.715Z,99624.72
2023-03-08T02:44:21.208Z,99622.22
2023-03-08T02:46:47.973Z,99616.25
2023-03-08T02:49:15.085Z,99622.31
2023-03-08T02:51:41.440Z,99615.50
2023-03-08T02:54:07.811Z,99624.88
2023-03-08T02:56:34.290Z,99620.69
2023-03-08T02:59:00.693Z,99620.78
2023-03-08T03:01:27.596Z,99620.84
2023-03-08T03:03:55.264Z,99615.66
2023-03-08T03:06:22.061Z,99614.69
2023-03-08T03:08:51.964Z,99619.78
2023-03-08T03:11:21.318Z,99619.13
2023-03-08T03:13:55.389Z,99613.97
2023-03-08T03:16:22.814Z,99614.63
2023-03-08T03:18:49.156Z,99622.41
2023-03-08T03:21:15.539Z,99611.38
2023-03-08T03:23:42.214Z,99619.13
2023-03-08T03:26:16.239Z,99610.50
2023-03-08T03:28:44.343Z,99625.88
2023-03-08T03:31:16.685Z,99616.41
2023-03-08T03:33:44.373Z,99614.75
2023-03-08T03:36:18.667Z,99624.09
2023-03-08T03:38:45.748Z,99631.63
2023-03-08T03:41:18.189Z,99635.03
2023-03-08T03:43:45.990Z,99616.00
2023-03-08T03:46:16.662Z,99618.41
2023-03-08T03:48:44.832Z,99617.38
2023-03-08T03:51:17.893Z,99624.25
2023-03-08T03:53:48.693Z,99626.84
2023-03-08T03:56:21.246Z,99633.78
2023-03-08T03:58:48.711Z,99631.97
2023-03-08T04:01:21.373Z,99636.88
2023-03-08T04:03:48.700Z,99633.28
2023-03-08T04:06:19.086Z,99628.84
2023-03-08T04:08:46.281Z,99623.03
2023-03-08T04:11:20.291Z,99625.88
2023-03-08T04:13:47.389Z,99630.47
2023-03-08T04:16:23.167Z,99634.06
2023-03-08T04:18:54.077Z,99638.34
2023-03-08T04:21:20.642Z,99635.75
2023-03-08T04:23:47.340Z,99636.69
2023-03-08T04:26:13.848Z,99638.38
2023-03-08T04:28:41.321Z,99642.53
2023-03-08T04:31:25.831Z,99635.69
2023-03-08T04:33:52.796Z,99650.28
2023-03-08T04:36:20.213Z,99638.44
2023-03-08T04:38:47.681Z,99632.38
2023-03-08T04:41:14.754Z,99633.09
2023-03-08T04:43:59.092Z,99635.47
2023-03-08T04:46:37.150Z,99629.28
2023-03-08T04:49:03.930Z,99631.91
2023-03-08T04:51:36.631Z,99640.75
2023-03-08T04:54:05.149Z,99636.63
2023-03-08T04:56:33.951Z,99640.84
2023-03-08T04:59:00.754Z,99628.09
2023-03-08T05:01:27.806Z,99634.19
2023-03-08T05:03:55.342Z,99639.28
2023-03-08T05:06:28.121Z,99637.50
2023-03-08T05:08:56.644Z,99634.81
2023-03-08T05:11:26.606Z,99630.50
2023-03-08T05:13:56.271Z,99634.00
2023-03-08T05:16:25.909Z,99634.22
2023-03-08T05:18:59.021Z,99634.34
2023-03-08T05:21:31.152Z,99635.22
2023-03-08T05:24:04.114Z,99633.31
2023-03-08T05:26:34.043Z,99617.75
2023-03-08T05:29:03.397Z,99617.63
2023-03-08T05:31:30.991Z,99620.25
2023-03-08T05:33:59.404Z,99624.56
2023-03-08T05:36:33.602Z,99616.97
2023-03-08T05:39:01.792Z,99625.56
2023-03-08T05:41:36.810Z,99615.19
2023-03-08T05:44:04.330Z,99616.00
2023-03-08T05:46:32.755Z,99630.63
2023-03-08T05:49:01.596Z,99622.72
2023-03-08T05:51:31.895Z,99631.13
2023-03-08T05:53:59.290Z,99630.22
2023-03-08T05:56:30.173Z,99635.50
2023-03-08T05:59:11.576Z,99632.16
2023-03-08T06:01:38.221Z,99640.06
2023-03-08T06:04:15.524Z,99635.66
2023-03-08T06:06:44.291Z,99640.03
2023-03-08T06:09:10.704Z,99640.88
2023-03-08T06:11:39.823Z,99650.41
2023-03-08T06:14:06.757Z,99643.53
2023-03-08T06:16:34.760Z,99647.00
2023-03-08T06:19:01.881Z,99647.09
2023-03-08T06:21:29.301Z,99644.59
2023-03-08T06:23:59.918Z,99640.34
2023-03-08T06:26:26.496Z,99641.88
2023-03-08T06:28:52.872Z,99624.63
2023-03-08T06:31:20.610Z,99640.13
2023-03-08T06:33:47.483Z,99631.56
2023-03-08T06:36:22.018Z,99637.69
2023-03-08T06:38:51.944Z,99634.28
2023-03-08T06:41:19.866Z,99635.19
2023-03-08T06:43:50.540Z,99634.31
2023-03-08T06:46:19.066Z,99636.00
2023-03-08T06:48:47.012Z,99635.97
2023-03-08T06:51:15.057Z,99639.34
2023-03-08T06:53:44.256Z,99628.00
2023-03-08T06:56:13.471Z,99634.91
2023-03-08T06:58:40.386Z,99631.56
2023-03-08T07:01:06.776Z,99635.00
2023-03-08T07:03:33.804Z,99639.06
2023-03-08T07:06:02.197Z,99634.69
2023-03-08T07:08:28.898Z,99639.03
2023-03-08T07:10:55.592Z,99634.81
2023-03-08T07:13:23.563Z,99644.25
2023-03-08T07:15:50.861Z,99636.47
2023-03-08T07:18:18.163Z,99645.94
2023-03-08T07:20:45.998Z,99647.63
2023-03-08T07:23:12.353Z,99644.25
2023-03-08T07:25:45.663Z,99644.97
2023-03-08T07:28:12.119Z,99651.63
2023-03-08T07:30:38.723Z,99641.31
2023-03-08T07:33:05.231Z,99641.38
2023-03-08T07:35:31.582Z,99644.75
2023-03-08T07:37:58.017Z,99629.22
2023-03-08T07:40:24.425Z,99634.38
2023-03-08T07:42:54.650Z,99638.47
2023-03-08T07:45:35.300Z,99635.00
2023-03-08T07:48:06.063Z,99642.78
2023-03-08T07:50:32.452Z,99636.94
2023-03-08T07:53:00.043Z,99630.94
2023-03-08T07:55:27.634Z,99627.28
2023-03-08T07:57:57.617Z,99636.47
2023-03-08T08:00:24.309Z,99633.72
2023-03-08T08:03:01.381Z,99639.69
2023-03-08T08:05:27.923Z,99643.22
2023-03-08T08:07:54.347Z,99643.38
2023-03-08T08:10:20.776Z,99640.91
2023-03-08T08:12:47.168Z,99633.28
2023-03-08T08:15:13.644Z,99639.13
2023-03-08T08:17:39.974Z,99631.28
2023-03-08T08:20:08.008Z,99635.41
2023-03-08T08:22:39.095Z,99631.75
2023-03-08T08:25:06.586Z,99628.16
2023-03-08T08:27:33.362Z,99631.50
2023-03-08T08:29:59.841Z,99624.81
2023-03-08T08:32:26.769Z,99611.22
2023-03-08T08:34:57.445Z,99608.75
2023-03-08T08:37:24.987Z,99624.25
2023-03-08T08:39:55.353Z,99621.78
2023-03-08T08:42:21.861Z,99621.91
2023-03-08T08:44:55.095Z,99618.41
2023-03-08T08:47:21.508Z,99620.03
2023-03-08T08:49:47.861Z,99622.47
2023-03-08T08:52:14.302Z,99627.50
2023-03-08T08:54:40.873Z,99630.88
2023-03-08T08:57:07.295Z,99628.09
2023-03-08T08:59:34.097Z,99627.97
2023-03-08T09:02:00.648Z,99637.25
2023-03-08T09:04:27.177Z,99634.88
2023-03-08T09:06:54.152Z,99637.63
2023-03-08T09:09:27.010Z,99635.97
2023-03-08T09:11:55.467Z,99638.50
2023-03-08T09:14:26.093Z,99645.44
2023-03-08T09:16:56.088Z,99633.63
2023-03-08T09:19:22.508Z,99634.66
2023-03-08T09:21:52.215Z,99633.00
2023-03-08T09:24:21.989Z,99628.72
2023-03-08T09:26:48.473Z,99629.34
2023-03-08T09:29:14.831Z,99634.59
2023-03-08T09:31:42.312Z,99625.41
2023-03-08T09:34:10.327Z,99619.41
2023-03-08T09:36:39.363Z,99627.13
2023-03-08T09:39:05.995Z,99621.06
2023-03-08T09:41:46.463Z,99619.34
2023-03-08T09:44:51.571Z,99620.22
2023-03-08T09:47:59.957Z,99619.34
2023-03-08T09:50:45.382Z,99619.34
2023-03-08T09:53:32.253Z,99615.72
2023-03-08T09:56:04.790Z,99617.22
2023-03-08T09:58:37.550Z,99607.75
2023-03-08T10:01:21.724Z,99610.47
2023-03-08T10:04:09.463Z,99603.47
2023-03-08T10:06:51.549Z,99597.25
2023-03-08T10:09:24.809Z,99595.31
2023-03-08T10:12:32.909Z,99590.78
2023-03-08T10:15:09.426Z,99592.66
2023-03-08T10:17:46.156Z,99585.69
2023-03-08T10:20:27.247Z,99587.38
2023-03-08T10:22:58.966Z,99590.84
2023-03-08T10:25:31.321Z,99590.81
2023-03-08T10:28:01.587Z,99587.47
2023-03-08T10:30:34.281Z,99584.78
2023-03-08T10:33:11.402Z,99589.03
2023-03-08T10:35:52.537Z,99581.25
2023-03-08T10:38:18.939Z,99582.72
2023-03-08T10:40:45.996Z,99572.22
2023-03-08T10:43:28.496Z,99570.66
2023-03-08T10:46:00.934Z,99566.50
2023-03-08T10:48:27.442Z,99563.03
2023-03-08T10:51:06.469Z,99555.16
2023-03-08T10:53:33.278Z,99563.72
2023-03-08T10:56:01.327Z,99559.75
2023-03-08T10:58:39.506Z,99555.00
2023-03-08T11:01:22.573Z,99557.25
2023-03-08T11:04:12.715Z,99546.38
2023-03-08T11:06:39.289Z,99549.28
2023-03-08T11:09:20.768Z,99548.34
2023-03-08T11:11:47.186Z,99541.25
2023-03-08T11:14:14.839Z,99547.84
2023-03-08T11:16:53.405Z,99543.16
2023-03-08T11:19:37.906Z,99543.16
2023-03-08T11:22:07.240Z,99541.44
2023-03-08T11:24:57.224Z,99538.91
2023-03-08T11:27:51.617Z,99545.59
2023-03-08T11:30:29.838Z,99532.19
2023-03-08T11:33:23.905Z,99531.38
2023-03-08T11:36:04.307Z,99529.13
2023-03-08T11:38:37.841Z,99520.06
2023-03-08T11:41:23.604Z,99522.84
2023-03-08T11:44:18.002Z,99525.50
2023-03-08T11:47:00.473Z,99522.75
2023-03-08T11:49:51.119Z,99521.09
2023-03-08T11:52:37.229Z,99517.81
2023-03-08T11:55:28.696Z,99514.03
2023-03-08T11:58:03.205Z,99519.81
2023-03-08T12:00:39.005Z,99513.13
2023-03-08T12:03:15.268Z,99513.53
2023-03-08T12:05:49.693Z,99513.34
2023-03-08T12:08:32.018Z,99505.22
2023-03-08T12:11:07.779Z,99507.53
2023-03-08T12:13:37.733Z,99510.19
2023-03-08T12:16:14.431Z,99508.38
2023-03-08T12:18:51.529Z,99499.59
2023-03-08T12:21:29.009Z,99497.78
2023-03-08T12:24:13.605Z,99499.31
2023-03-08T12:26:46.085Z,99495.66
2023-03-08T12:29:22.844Z,99491.78
2023-03-08T12:31:50.793Z,99492.25
2023-03-08T12:34:59.683Z,99491.97
2023-03-08T12:37:28.539Z,99490.16
2023-03-08T12:40:07.714Z,99490.91
2023-03-08T12:42:37.345Z,99484.06
2023-03-08T12:45:18.873Z,99485.94
2023-03-08T12:48:13.553Z,99476.47
2023-03-08T12:50:44.965Z,99477.47
2023-03-08T12:53:33.275Z,99474.16
2023-03-08T12:56:02.693Z,99474.34
2023-03-08T12:58:31.318Z,99473.63
2023-03-08T13:01:03.911Z,99481.63
2023-03-08T13:03:41.242Z,99481.97
2023-03-08T13:06:22.682Z,99485.78
2023-03-08T13:08:55.597Z,99491.06
2023-03-08T13:11:24.167Z,99482.44
2023-03-08T13:13:57.131Z,99483.19
2023-03-08T13:16:26.226Z,99481.25
2023-03-08T13:19:13.430Z,99475.94
2023-03-08T13:21:48.808Z,99474.03
2023-03-08T13:24:34.922Z,99480.00
2023-03-08T13:27:17.938Z,99480.69
2023-03-08T13:29:46.632Z,99477.91
2023-03-08T13:32:24.123Z,99479.38
2023-03-08T13:35:02.213Z,99480.94
2023-03-08T13:37:30.133Z,99492.16
2023-03-08T13:39:58.950Z,99488.06
2023-03-08T13:42:29.420Z,99487.63
2023-03-08T13:45:09.790Z,99485.25
2023-03-08T13:47:38.840Z,99488.41
2023-03-08T13:50:06.094Z,99491.59
2023-03-08T13:52:37.174Z,99486.84
2023-03-08T13:55:08.457Z,99491.63
2023-03-08T13:57:37.755Z,99490.34
2023-03-08T14:00:19.577Z,99484.13
2023-03-08T14:02:47.284Z,99476.84
2023-03-08T14:05:18.124Z,99472.19
2023-03-08T14:07:54.870Z,99467.53
2023-03-08T14:10:24.394Z,99472.44
2023-03-08T14:12:50.818Z,99472.88
2023-03-08T14:15:18.346Z,99479.25
2023-03-08T14:17:44.850Z,99474.72
2023-03-08T14:20:21.321Z,99483.09
2023-03-08T14:22:50.220Z,99473.75
2023-03-08T14:25:25.093Z,99471.94
2023-03-08T14:27:52.811Z,99470.94
2023-03-08T14:30:22.172Z,99467.16
2023-03-08T14:33:07.954Z,99458.91
2023-03-08T14:35:40.509Z,99461.91
2023-03-08T14:38:31.701Z,99455.50
2023-03-08T14:41:03.662Z,99458.28
2023-03-08T14:43:30.108Z,99451.41
2023-03-08T14:46:00.733Z,99449.66
2023-03-08T14:48:32.241Z,99453.00
2023-03-08T14:51:04.699Z,99450.22
2023-03-08T14:53:41.444Z,99446.69
2023-03-08T14:56:15.948Z,99445.78
2023-03-08T14:58:51.006Z,99433.63
2023-03-08T15:01:32.072Z,99438.06
2023-03-08T15:03:58.763Z,99436.38
2023-03-08T15:06:29.244Z,99434.81
2023-03-08T15:08:57.178Z,99436.72
2023-03-08T15:11:23.894Z,99428.28
2023-03-08T15:13:50.727Z,99431.06
2023-03-08T15:16:17.342Z,99429.50
2023-03-08T15:18:43.735Z,99433.97
2023-03-08T15:21:21.877Z,99428.84
2023-03-08T15:23:49.113Z,99434.16
2023-03-08T15:26:22.149Z,99440.41
2023-03-08T15:28:48.519Z,99429.28
2023-03-08T15:31:14.885Z,99426.81
2023-03-08T15:33:41.664Z,99434.66
2023-03-08T15:36:14.467Z,99426.16
2023-03-08T15:38:41.134Z,99431.41
2023-03-08T15:41:11.868Z,99429.84
2023-03-08T15:43:38.244Z,99436.91
2023-03-08T15:46:04.964Z,99431.91
2023-03-08T15:48:31.426Z,99426.84
2023-03-08T15:50:58.440Z,99430.47
2023-03-08T15:53:34.859Z,99424.59
2023-03-08T15:56:01.548Z,99422.06
2023-03-08T15:58:27.979Z,99423.88
2023-03-08T16:00:54.419Z,99428.28
2023-03-08T16:03:30.538Z,99432.66
2023-03-08T16:05:58.512Z,99423.22
2023-03-08T16:08:25.046Z,99426.75
2023-03-08T16:10:52.056Z,99419.97
2023-03-08T16:13:18.839Z,99419.22
2023-03-08T16:15:45.339Z,99414.13
2023-03-08T16:18:11.717Z,99422.88
2023-03-08T16:20:42.245Z,99414.25
2023-03-08T16:23:08.746Z,99423.84
2023-03-08T16:25:35.143Z,99412.66
2023-03-08T16:28:02.161Z,99422.25
2023-03-08T16:30:28.577Z,99417.97
2023-03-08T16:32:59.310Z,99413.75
2023-03-08T16:35:29.181Z,99421.63
2023-03-08T16:37:55.925Z,99417.47
2023-03-08T16:40:22.326Z,99414.94
2023-03-08T16:42:51.507Z,99423.72
2023-03-08T16:45:17.883Z,99419.50
2023-03-08T16:47:44.233Z,99422.16
2023-03-08T16:50:13.124Z,99419.63
2023-03-08T16:52:39.499Z,99423.22
2023-03-08T16:55:06.645Z,99421.56
2023-03-08T16:57:33.039Z,99424.22
2023-03-08T16:59:59.384Z,99427.75
2023-03-08T17:02:25.935Z,99427.78
2023-03-08T17:04:55.228Z,99420.09
2023-03-08T17:07:21.554Z,99431.38
2023-03-08T17:09:47.905Z,99423.69
2023-03-08T17:12:14.468Z,99431.56
2023-03-08T17:14:41.141Z,99434.25
2023-03-08T17:17:07.556Z,99431.72
2023-03-08T17:19:33.939Z,99436.03
2023-03-08T17:22:00.290Z,99436.16
2023-03-08T17:24:27.905Z,99438.84
2023-03-08T17:26:54.709Z,99434.59
2023-03-08T17:29:21.201Z,99442.44
2023-03-08T17:31:47.730Z,99448.56
2023-03-08T17:34:14.754Z,99447.72
2023-03-08T17:36:41.282Z,99430.53
2023-03-08T17:39:08.017Z,99446.13
2023-03-08T17:41:34.560Z,99447.91
2023-03-08T17:44:00.990Z,99445.38
2023-03-08T17:46:27.753Z,99443.72
2023-03-08T17:48:55.268Z,99452.44
2023-03-08T17:51:25.228Z,99456.78
2023-03-08T17:53:52.246Z,99456.00
2023-03-08T17:56:21.439Z,99460.38
2023-03-08T17:58:48.898Z,99463.00
2023-03-08T18:01:28.925Z,99456.19
2023-03-08T18:03:57.486Z,99458.81
2023-03-08T18:06:35.453Z,99457.13
2023-03-08T18:09:05.414Z,99452.00
2023-03-08T18:11:37.218Z,99452.03
2023-03-08T18:14:08.667Z,99451.19
2023-03-08T18:16:35.350Z,99453.84
2023-03-08T18:19:02.901Z,99451.25
2023-03-08T18:21:31.830Z,99448.69
2023-03-08T18:23:58.594Z,99453.03
2023-03-08T18:26:25.023Z,99455.56
2023-03-08T18:28:51.794Z,99453.88
2023-03-08T18:31:23.212Z,99448.69
2023-03-08T18:33:50.219Z,99448.69
2023-03-08T18:36:16.612Z,99449.53
2023-03-08T18:38:43.334Z,99439.22
2023-03-08T18:41:17.895Z,99435.78
2023-03-08T18:43:45.210Z,99432.38
2023-03-08T18:46:13.284Z,99438.44
2023-03-08T18:48:40.580Z,99435.91
2023-03-08T18:51:07.161Z,99428.19
2023-03-08T18:53:33.612Z,99431.66
2023-03-08T18:56:01.966Z,99432.59
2023-03-08T18:58:28.777Z,99432.59
2023-03-08T19:00:58.794Z,99428.38
2023-03-08T19:03:26.833Z,99432.75
2023-03-08T19:05:53.319Z,99429.31
2023-03-08T19:08:19.969Z,99419.00
2023-03-08T19:10:46.331Z,99419.84
2023-03-08T19:13:12.696Z,99423.34
2023-03-08T19:15:39.456Z,99422.53
2023-03-08T19:18:06.862Z,99419.94
2023-03-08T19:20:37.924Z,99427.75
2023-03-08T19:23:04.439Z,99423.47
2023-03-08T19:25:32.345Z,99426.94
2023-03-08T19:27:58.743Z,99426.09
2023-03-08T19:30:28.154Z,99427.81
2023-03-08T19:32:56.031Z,99426.09
2023-03-08T19:35:22.510Z,99428.75
2023-03-08T19:37:48.884Z,99427.94
2023-03-08T19:40:15.424Z,99427.97
2023-03-08T19:42:41.765Z,99421.97
2023-03-08T19:45:09.098Z,99424.53
2023-03-08T19:47:35.458Z,99419.31
2023-03-08T19:50:02.223Z,99412.41
2023-03-08T19:52:28.648Z,99410.66
2023-03-08T19:54:54.995Z,99412.44
2023-03-08T19:57:21.338Z,99409.88
2023-03-08T19:59:47.718Z,99405.53
2023-03-08T20:02:14.108Z,99409.88
2023-03-08T20:04:43.586Z,99418.47
2023-03-08T20:07:10.027Z,99420.22
2023-03-08T20:09:36.379Z,99418.47
2023-03-08T20:12:02.748Z,99417.59
2023-03-08T20:14:29.267Z,99421.06
2023-03-08T20:16:56.709Z,99433.16
2023-03-08T20:19:23.313Z,99426.25
2023-03-08T20:21:49.745Z,99429.69
2023-03-08T20:24:18.684Z,99426.25
2023-03-08T20:26:45.130Z,99427.94
2023-03-08T20:29:11.501Z,99445.22
2023-03-08T20:31:37.886Z,99451.28
2023-03-08T20:34:04.439Z,99451.31
2023-03-08T20:36:30.800Z,99448.72
2023-03-08T20:38:58.015Z,99451.31
2023-03-08T20:41:24.566Z,99455.59
2023-03-08T20:43:52.019Z,99455.63
2023-03-08T20:46:20.340Z,99454.75
2023-03-08T20:48:47.115Z,99456.50
2023-03-08T20:51:17.007Z,99455.69
2023-03-08T20:53:44.387Z,99452.25
2023-03-08T20:56:15.443Z,99447.97
2023-03-08T20:58:42.952Z,99441.06
2023-03-08T21:01:21.709Z,99453.16
2023-03-08T21:03:48.734Z,99452.25
2023-03-08T21:06:21.470Z,99452.31
2023-03-08T21:08:48.939Z,99451.44
2023-03-08T21:11:22.291Z,99456.66
2023-03-08T21:13:50.100Z,99466.16
2023-03-08T21:16:18.067Z,99465.38
2023-03-08T21:18:48.035Z,99475.72
2023-03-08T21:21:23.344Z,99477.47
2023-03-08T21:23:52.370Z,99474.97
2023-03-08T21:26:20.633Z,99474.97
2023-03-08T21:28:47.098Z,99469.81
2023-03-08T21:31:13.764Z,99462.91
2023-03-08T21:33:40.142Z,99455.25
2023-03-08T21:36:07.024Z,99452.69
2023-03-08T21:38:33.454Z,99451.00
2023-03-08T21:40:59.797Z,99450.16
2023-03-08T21:43:26.371Z,99445.00
2023-03-08T21:45:52.861Z,99437.25
2023-03-08T21:48:19.237Z,99427.81
2023-03-08T21:50:45.701Z,99420.94
2023-03-08T21:53:12.256Z,99417.47
2023-03-08T21:55:45.294Z,99420.06
2023-03-08T21:58:11.737Z,99420.06
2023-03-08T22:00:38.071Z,99422.69
2023-03-08T22:03:04.467Z,99417.50
2023-03-08T22:05:30.879Z,99423.53
2023-03-08T22:07:57.309Z,99432.13
2023-03-08T22:10:23.821Z,99427.84
2023-03-08T22:12:50.184Z,99421.78
2023-03-08T22:15:16.621Z,99418.34
2023-03-08T22:17:43.321Z,99414.91
2023-03-08T22:20:10.784Z,99421.81
2023-03-08T22:22:38.043Z,99414.91
2023-03-08T22:25:04.996Z,99407.13
2023-03-08T22:27:32.119Z,99418.31
2023-03-08T22:29:58.873Z,99420.00
2023-03-08T22:32:25.667Z,99412.25
2023-03-08T22:34:52.179Z,99418.28
2023-03-08T22:37:18.509Z,99414.84
2023-03-08T22:39:44.918Z,99414.00
2023-03-08T22:42:11.308Z,99414.84
2023-03-08T22:44:37.861Z,99411.41
2023-03-08T22:47:04.405Z,99409.66
2023-03-08T22:49:30.790Z,99418.31
2023-03-08T22:51:57.339Z,99412.28
2023-03-08T22:54:23.741Z,99420.94
2023-03-08T22:56:50.347Z,99412.28
2023-03-08T22:59:16.929Z,99421.75
2023-03-08T23:01:43.451Z,99414.84
2023-03-08T23:04:10.554Z,99414.84
2023-03-08T23:06:36.979Z,99411.41
2023-03-08T23:09:10.274Z,99410.56
2023-03-08T23:11:37.070Z,99408.00
2023-03-08T23:14:04.036Z,99408.00
2023-03-08T23:16:30.580Z,99402.03
2023-03-08T23:18:57.028Z,99402.03
2023-03-08T23:21:26.378Z,99405.50
2023-03-08T23:26:23.791Z,99403.00
2023-03-08T23:28:50.872Z,99410.81
2023-03-08T23:31:19.998Z,99412.53
2023-03-08T23:33:47.044Z,99403.94
2023-03-08T23:36:16.263Z,99400.50
2023-03-08T23:38:43.095Z,99395.38
2023-03-08T23:41:11.485Z,99391.94
2023-03-08T23:43:38.601Z,99392.84
2023-03-08T23:46:10.595Z,99402.34
2023-03-08T23:48:37.015Z,99405.88
2023-03-08T23:51:05.764Z,99397.34
2023-03-08T23:53:32.661Z,99401.66
2023-03-08T23:55:59.314Z,99397.34
2023-03-08T23:58:25.908Z,99409.41
